createdAt,value
2022-11-29T00:00:21.598Z,98203.50
2022-11-29T00:02:47.814Z,98202.25
2022-11-29T00:05:13.981Z,98208.56
2022-11-29T00:07:40.122Z,98208.69
2022-11-29T00:10:06.252Z,98215.47
2022-11-29T00:12:32.380Z,98204.25
2022-11-29T00:14:58.481Z,98216.28
2022-11-29T00:17:24.567Z,98209.84
2022-11-29T00:19:50.699Z,98216.16
2022-11-29T00:22:16.805Z,98214.34
2022-11-29T00:24:43.064Z,98219.09
2022-11-29T00:27:09.356Z,98221.72
2022-11-29T00:29:35.502Z,98219.59
2022-11-29T00:32:01.643Z,98218.28
2022-11-29T00:34:27.748Z,98222.41
2022-11-29T00:36:53.848Z,98221.03
2022-11-29T00:39:19.952Z,98206.38
2022-11-29T00:41:46.059Z,98217.28
2022-11-29T00:44:18.391Z,98216.09
2022-11-29T00:46:46.133Z,98212.16
2022-11-29T00:49:12.246Z,98212.59
2022-11-29T00:51:38.351Z,98215.25
2022-11-29T00:54:04.435Z,98213.06
2022-11-29T00:56:30.542Z,98217.22
2022-11-29T00:58:56.623Z,98218.31
2022-11-29T01:01:22.741Z,98220.81
2022-11-29T01:03:48.901Z,98213.28
2022-11-29T01:06:14.996Z,98216.75
2022-11-29T01:08:41.102Z,98218.03
2022-11-29T01:11:07.222Z,98214.72
2022-11-29T01:13:33.349Z,98217.59
2022-11-29T01:15:59.453Z,98222.31
2022-11-29T01:18:25.557Z,98225.78
2022-11-29T01:20:51.683Z,98221.50
2022-11-29T01:23:17.775Z,98226.91
2022-11-29T01:25:43.907Z,98227.75
2022-11-29T01:28:10.000Z,98231.59
2022-11-29T01:30:36.136Z,98224.94
2022-11-29T01:33:02.253Z,98232.53
2022-11-29T01:35:28.354Z,98231.28
2022-11-29T01:37:54.461Z,98225.78
2022-11-29T01:40:20.584Z,98232.25
2022-11-29T01:42:46.670Z,98237.38
2022-11-29T01:45:12.769Z,98236.41
2022-11-29T01:47:38.884Z,98237.38
2022-11-29T01:50:04.986Z,98240.00
2022-11-29T01:52:31.084Z,98244.44
2022-11-29T01:54:57.209Z,98252.03
2022-11-29T01:57:23.298Z,98246.75
2022-11-29T01:59:49.382Z,98249.41
2022-11-29T02:02:15.550Z,98244.13
2022-11-29T02:04:41.730Z,98244.81
2022-11-29T02:07:07.913Z,98244.81
2022-11-29T02:09:34.020Z,98248.66
2022-11-29T02:12:00.136Z,98250.00
2022-11-29T02:14:26.251Z,98255.34
2022-11-29T02:16:56.520Z,98256.16
2022-11-29T02:19:22.922Z,98256.03
2022-11-29T02:21:49.024Z,98257.31
2022-11-29T02:24:15.130Z,98257.31
2022-11-29T02:26:41.235Z,98256.41
2022-11-29T02:29:07.336Z,98253.25
2022-11-29T02:31:33.769Z,98250.09
2022-11-29T02:33:59.859Z,98250.91
2022-11-29T02:36:25.964Z,98253.25
2022-11-29T02:38:52.066Z,98253.94
2022-11-29T02:41:18.158Z,98257.91
2022-11-29T02:43:44.259Z,98260.94
2022-11-29T02:46:10.404Z,98266.72
2022-11-29T02:48:36.538Z,98266.03
2022-11-29T02:51:02.645Z,98269.66
2022-11-29T02:53:28.773Z,98265.31
2022-11-29T02:55:54.870Z,98267.56
2022-11-29T02:58:20.963Z,98268.44
2022-11-29T03:00:47.083Z,98281.63
2022-11-29T03:03:13.188Z,98280.41
2022-11-29T03:05:39.282Z,98280.88
2022-11-29T03:08:05.392Z,98286.28
2022-11-29T03:10:31.493Z,98286.75
2022-11-29T03:12:57.600Z,98281.94
2022-11-29T03:15:23.847Z,98288.63
2022-11-29T03:17:50.028Z,98293.59
2022-11-29T03:20:16.119Z,98288.47
2022-11-29T03:22:42.256Z,98289.75
2022-11-29T03:25:08.360Z,98297.06
2022-11-29T03:27:34.459Z,98294.06
2022-11-29T03:30:00.592Z,98305.25
2022-11-29T03:32:26.684Z,98300.97
2022-11-29T03:34:56.958Z,98305.41
2022-11-29T03:37:24.084Z,98302.34
2022-11-29T03:39:50.194Z,98304.13
2022-11-29T03:42:16.282Z,98297.66
2022-11-29T03:44:42.717Z,98303.81
2022-11-29T03:47:08.978Z,98309.38
2022-11-29T03:49:35.073Z,98311.75
2022-11-29T03:52:01.162Z,98310.97
2022-11-29T03:54:27.258Z,98311.19
2022-11-29T03:56:53.351Z,98314.00
2022-11-29T03:59:19.486Z,98310.31
2022-11-29T04:01:45.630Z,98315.19
2022-11-29T04:04:11.763Z,98317.47
2022-11-29T04:06:37.870Z,98324.44
2022-11-29T04:09:03.959Z,98321.22
2022-11-29T04:11:30.073Z,98323.69
2022-11-29T04:13:56.196Z,98332.59
2022-11-29T04:16:22.329Z,98329.88
2022-11-29T04:18:48.443Z,98336.13
2022-11-29T04:21:15.338Z,98320.63
2022-11-29T04:23:41.436Z,98336.13
2022-11-29T04:26:07.525Z,98328.81
2022-11-29T04:28:33.641Z,98345.69
2022-11-29T04:30:59.856Z,98349.34
2022-11-29T04:33:25.974Z,98342.72
2022-11-29T04:35:52.079Z,98341.38
2022-11-29T04:38:18.174Z,98353.69
2022-11-29T04:40:44.257Z,98357.88
2022-11-29T04:43:10.359Z,98354.94
2022-11-29T04:45:36.442Z,98360.78
2022-11-29T04:48:02.545Z,98357.69
2022-11-29T04:50:28.649Z,98361.06
2022-11-29T04:52:54.736Z,98362.94
2022-11-29T04:55:27.684Z,98370.84
2022-11-29T04:57:56.694Z,98368.34
2022-11-29T05:00:22.779Z,98372.53
2022-11-29T05:02:48.916Z,98369.50
2022-11-29T05:05:15.034Z,98374.19
2022-11-29T05:07:41.139Z,98375.72
2022-11-29T05:10:07.256Z,98379.16
2022-11-29T05:12:33.371Z,98380.00
2022-11-29T05:14:59.460Z,98387.38
2022-11-29T05:17:25.554Z,98378.34
2022-11-29T05:19:51.672Z,98386.94
2022-11-29T05:22:17.769Z,98380.34
2022-11-29T05:24:44.136Z,98392.38
2022-11-29T05:27:10.434Z,98390.31
2022-11-29T05:29:36.559Z,98391.13
2022-11-29T05:32:02.661Z,98396.97
2022-11-29T05:34:34.520Z,98390.56
2022-11-29T05:37:00.911Z,98411.06
2022-11-29T05:39:26.996Z,98405.41
2022-11-29T05:41:53.395Z,98405.81
2022-11-29T05:44:19.479Z,98403.47
2022-11-29T05:46:45.612Z,98406.41
2022-11-29T05:49:11.745Z,98417.22
2022-11-29T05:51:37.838Z,98411.22
2022-11-29T05:54:03.951Z,98423.00
2022-11-29T05:56:30.106Z,98423.00
2022-11-29T05:58:56.201Z,98423.72
2022-11-29T06:01:22.291Z,98432.97
2022-11-29T06:03:48.416Z,98432.00
2022-11-29T06:06:14.521Z,98431.59
2022-11-29T06:08:40.615Z,98440.63
2022-11-29T06:11:06.725Z,98441.72
2022-11-29T06:13:32.835Z,98442.22
2022-11-29T06:15:58.970Z,98451.97
2022-11-29T06:18:25.133Z,98448.50
2022-11-29T06:20:51.226Z,98449.22
2022-11-29T06:23:17.308Z,98447.41
2022-11-29T06:25:43.430Z,98448.66
2022-11-29T06:28:09.519Z,98452.78
2022-11-29T06:30:35.611Z,98458.91
2022-11-29T06:33:01.729Z,98462.63
2022-11-29T06:35:27.826Z,98466.53
2022-11-29T06:37:53.919Z,98466.38
2022-11-29T06:40:20.031Z,98468.63
2022-11-29T06:42:46.128Z,98476.38
2022-11-29T06:45:12.221Z,98479.84
2022-11-29T06:47:38.598Z,98483.31
2022-11-29T06:50:04.700Z,98481.78
2022-11-29T06:52:30.800Z,98479.97
2022-11-29T06:54:56.920Z,98480.50
2022-11-29T06:57:23.007Z,98494.91
2022-11-29T06:59:49.106Z,98490.66
2022-11-29T07:02:15.264Z,98489.81
2022-11-29T07:04:45.891Z,98497.03
2022-11-29T07:07:12.512Z,98498.97
2022-11-29T07:09:38.630Z,98500.63
2022-11-29T07:12:04.729Z,98500.22
2022-11-29T07:14:30.832Z,98503.00
2022-11-29T07:16:57.571Z,98512.00
2022-11-29T07:19:23.839Z,98512.84
2022-11-29T07:21:49.939Z,98517.09
2022-11-29T07:24:16.042Z,98516.69
2022-11-29T07:26:42.139Z,98511.16
2022-11-29T07:29:08.472Z,98512.56
2022-11-29T07:31:34.735Z,98520.44
2022-11-29T07:34:00.890Z,98517.53
2022-11-29T07:36:26.990Z,98521.53
2022-11-29T07:38:53.101Z,98529.44
2022-11-29T07:41:19.212Z,98530.53
2022-11-29T07:43:45.312Z,98522.38
2022-11-29T07:46:11.446Z,98530.53
2022-11-29T07:48:37.539Z,98535.25
2022-11-29T07:51:03.633Z,98543.00
2022-11-29T07:53:29.750Z,98541.34
2022-11-29T07:55:55.854Z,98534.28
2022-11-29T07:58:21.993Z,98529.81
2022-11-29T08:00:48.183Z,98545.50
2022-11-29T08:03:14.320Z,98542.16
2022-11-29T08:05:40.403Z,98539.41
2022-11-29T08:08:06.530Z,98541.47
2022-11-29T08:10:32.650Z,98544.66
2022-11-29T08:12:58.744Z,98538.56
2022-11-29T08:15:24.866Z,98549.22
2022-11-29T08:17:50.985Z,98544.09
2022-11-29T08:20:17.079Z,98547.97
2022-11-29T08:22:43.207Z,98546.84
2022-11-29T08:25:09.306Z,98556.16
2022-11-29T08:27:35.436Z,98560.72
2022-11-29T08:30:02.196Z,98566.56
2022-11-29T08:32:28.291Z,98559.38
2022-11-29T08:34:54.392Z,98568.09
2022-11-29T08:37:20.511Z,98573.19
2022-11-29T08:39:46.604Z,98566.28
2022-11-29T08:42:12.701Z,98577.09
2022-11-29T08:44:38.820Z,98581.94
2022-11-29T08:47:04.932Z,98580.66
2022-11-29T08:49:31.016Z,98580.41
2022-11-29T08:51:57.435Z,98579.16
2022-11-29T08:54:23.524Z,98584.81
2022-11-29T08:57:37.937Z,98592.88
2022-11-29T08:59:35.717Z,98591.75
2022-11-29T09:02:01.844Z,98589.53
2022-11-29T09:04:28.017Z,98595.09
2022-11-29T09:06:54.133Z,98593.56
2022-11-29T09:09:20.211Z,98591.19
2022-11-29T09:11:49.456Z,98601.59
2022-11-29T09:14:15.897Z,98603.09
2022-11-29T09:16:42.026Z,98606.69
2022-11-29T09:19:08.134Z,98608.06
2022-11-29T09:21:34.235Z,98614.03
2022-11-29T09:24:00.359Z,98620.59
2022-11-29T09:26:26.487Z,98612.81
2022-11-29T09:28:52.625Z,98620.81
2022-11-29T09:31:18.758Z,98631.50
2022-11-29T09:33:44.864Z,98629.69
2022-11-29T09:36:11.511Z,98637.47
2022-11-29T09:38:37.607Z,98636.34
2022-11-29T09:41:03.699Z,98632.31
2022-11-29T09:43:29.821Z,98645.09
2022-11-29T09:45:55.925Z,98636.91
2022-11-29T09:48:22.034Z,98638.66
2022-11-29T09:50:48.173Z,98645.16
2022-11-29T09:53:14.267Z,98652.38
2022-11-29T09:55:40.356Z,98647.69
2022-11-29T09:58:06.477Z,98650.06
2022-11-29T10:00:32.599Z,98661.59
2022-11-29T10:02:58.775Z,98652.94
2022-11-29T10:05:24.928Z,98652.63
2022-11-29T10:07:51.077Z,98658.44
2022-11-29T10:10:17.276Z,98659.81
2022-11-29T10:12:43.425Z,98654.81
2022-11-29T10:15:09.580Z,98652.75
2022-11-29T10:17:35.706Z,98650.66
2022-11-29T10:20:01.855Z,98647.78
2022-11-29T10:22:27.979Z,98650.88
2022-11-29T10:24:54.080Z,98651.16
2022-11-29T10:27:20.216Z,98658.38
2022-11-29T10:29:46.351Z,98653.25
2022-11-29T10:32:12.451Z,98654.63
2022-11-29T10:34:38.552Z,98658.22
2022-11-29T10:37:04.645Z,98663.22
2022-11-29T10:39:30.743Z,98657.94
2022-11-29T10:41:56.862Z,98660.69
2022-11-29T10:44:22.961Z,98666.25
2022-11-29T10:46:49.057Z,98662.75
2022-11-29T10:49:15.170Z,98653.31
2022-11-29T10:51:41.261Z,98660.81
2022-11-29T10:54:07.356Z,98656.97
2022-11-29T10:56:33.468Z,98663.72
2022-11-29T10:58:59.573Z,98669.53
2022-11-29T11:01:25.811Z,98664.84
2022-11-29T11:03:53.118Z,98663.63
2022-11-29T11:06:19.328Z,98665.47
2022-11-29T11:08:45.425Z,98664.25
2022-11-29T11:11:11.536Z,98659.53
2022-11-29T11:13:37.656Z,98659.81
2022-11-29T11:16:03.785Z,98665.63
2022-11-29T11:18:29.892Z,98666.03
2022-11-29T11:20:55.990Z,98664.91
2022-11-29T11:23:22.088Z,98669.78
2022-11-29T11:25:48.321Z,98664.19
2022-11-29T11:28:14.455Z,98668.41
2022-11-29T11:30:40.588Z,98664.16
2022-11-29T11:33:06.750Z,98660.78
2022-11-29T11:35:32.852Z,98667.34
2022-11-29T11:37:58.950Z,98667.13
2022-11-29T11:40:25.125Z,98675.16
2022-11-29T11:42:51.272Z,98667.28
2022-11-29T11:45:17.365Z,98664.41
2022-11-29T11:47:43.486Z,98670.09
2022-11-29T11:50:09.593Z,98673.09
2022-11-29T11:52:39.775Z,98673.09
2022-11-29T11:55:07.323Z,98669.72
2022-11-29T11:57:33.418Z,98671.69
2022-11-29T12:00:05.024Z,98676.28
2022-11-29T12:02:33.029Z,98669.72
2022-11-29T12:04:59.216Z,98672.34
2022-11-29T12:07:45.002Z,98670.41
2022-11-29T12:10:11.442Z,98667.94
2022-11-29T12:12:37.538Z,98669.41
2022-11-29T12:15:03.633Z,98667.91
2022-11-29T12:17:29.736Z,98676.91
2022-11-29T12:19:55.863Z,98673.91
2022-11-29T12:22:22.018Z,98676.72
2022-11-29T12:24:48.348Z,98684.06
2022-11-29T12:27:14.618Z,98686.13
2022-11-29T12:29:40.737Z,98690.69
2022-11-29T12:32:06.864Z,98695.00
2022-11-29T12:34:32.951Z,98694.34
2022-11-29T12:36:59.054Z,98697.94
2022-11-29T12:39:25.723Z,98700.59
2022-11-29T12:41:54.185Z,98705.34
2022-11-29T12:44:20.524Z,98708.47
2022-11-29T12:46:46.703Z,98709.72
2022-11-29T12:49:12.834Z,98709.28
2022-11-29T12:51:38.930Z,98713.03
2022-11-29T12:54:05.044Z,98709.53
2022-11-29T12:56:31.142Z,98710.72
2022-11-29T12:58:57.242Z,98710.00
2022-11-29T13:01:23.475Z,98712.97
2022-11-29T13:03:49.663Z,98710.78
2022-11-29T13:06:15.770Z,98709.44
2022-11-29T13:08:41.934Z,98712.69
2022-11-29T13:11:08.050Z,98717.78
2022-11-29T13:13:34.211Z,98718.41
2022-11-29T13:16:00.483Z,98713.94
2022-11-29T13:18:26.659Z,98724.47
2022-11-29T13:20:52.758Z,98717.81
2022-11-29T13:23:20.744Z,98729.41
2022-11-29T13:25:46.957Z,98726.22
2022-11-29T13:28:13.048Z,98731.16
2022-11-29T13:30:39.163Z,98730.09
2022-11-29T13:33:05.273Z,98729.38
2022-11-29T13:35:31.374Z,98733.16
2022-11-29T13:37:57.496Z,98738.69
2022-11-29T13:40:23.605Z,98731.88
2022-11-29T13:42:49.707Z,98731.47
2022-11-29T13:45:16.263Z,98730.22
2022-11-29T13:47:42.365Z,98729.13
2022-11-29T13:50:08.460Z,98728.00
2022-11-29T13:52:34.559Z,98730.50
2022-11-29T13:55:00.665Z,98724.66
2022-11-29T13:57:26.767Z,98726.13
2022-11-29T13:59:52.885Z,98732.75
2022-11-29T14:02:18.993Z,98732.91
2022-11-29T14:04:45.419Z,98734.56
2022-11-29T14:07:11.719Z,98737.09
2022-11-29T14:09:37.807Z,98733.63
2022-11-29T14:12:03.912Z,98738.31
2022-11-29T14:14:30.524Z,98740.44
2022-11-29T14:16:56.619Z,98735.00
2022-11-29T14:19:22.707Z,98746.38
2022-11-29T14:21:48.864Z,98752.06
2022-11-29T14:24:15.633Z,98746.25
2022-11-29T14:26:41.738Z,98744.44
2022-11-29T14:29:07.863Z,98738.91
2022-11-29T14:31:34.052Z,98753.88
2022-11-29T14:34:00.176Z,98755.41
2022-11-29T14:36:26.288Z,98750.72
2022-11-29T14:38:52.380Z,98752.78
2022-11-29T14:41:18.484Z,98754.59
2022-11-29T14:43:44.625Z,98763.88
2022-11-29T14:46:10.754Z,98757.63
2022-11-29T14:48:36.887Z,98761.38
2022-11-29T14:51:03.005Z,98756.38
2022-11-29T14:53:29.163Z,98756.25
2022-11-29T14:55:55.256Z,98766.94
2022-11-29T14:58:21.376Z,98766.78
2022-11-29T15:00:47.484Z,98767.91
2022-11-29T15:03:13.622Z,98767.06
2022-11-29T15:05:39.745Z,98761.41
2022-11-29T15:08:05.850Z,98768.06
2022-11-29T15:10:31.941Z,98769.41
2022-11-29T15:12:58.105Z,98766.53
2022-11-29T15:15:24.214Z,98771.94
2022-11-29T15:17:50.311Z,98773.31
2022-11-29T15:20:16.419Z,98772.75
2022-11-29T15:22:42.516Z,98776.66
2022-11-29T15:25:08.620Z,98774.28
2022-11-29T15:27:39.884Z,98778.19
2022-11-29T15:30:06.327Z,98777.19
2022-11-29T15:32:32.425Z,98782.34
2022-11-29T15:34:58.531Z,98778.31
2022-11-29T15:37:24.627Z,98786.09
2022-11-29T15:39:50.721Z,98777.75
2022-11-29T15:42:16.834Z,98780.38
2022-11-29T15:44:43.050Z,98777.63
2022-11-29T15:47:09.213Z,98777.47
2022-11-29T15:49:35.329Z,98782.75
2022-11-29T15:52:01.432Z,98785.78
2022-11-29T15:54:27.519Z,98786.09
2022-11-29T15:56:53.629Z,98788.28
2022-11-29T15:59:19.725Z,98790.78
2022-11-29T16:01:45.867Z,98785.22
2022-11-29T16:04:12.012Z,98784.09
2022-11-29T16:06:38.107Z,98791.06
2022-11-29T16:09:04.221Z,98792.28
2022-11-29T16:11:30.326Z,98800.31
2022-11-29T16:13:56.439Z,98798.78
2022-11-29T16:16:22.650Z,98799.50
2022-11-29T16:18:49.155Z,98801.59
2022-11-29T16:21:15.261Z,98805.84
2022-11-29T16:23:41.354Z,98808.78
2022-11-29T16:26:07.461Z,98807.25
2022-11-29T16:28:33.550Z,98810.59
2022-11-29T16:30:59.656Z,98816.41
2022-11-29T16:33:25.763Z,98819.72
2022-11-29T16:35:52.132Z,98820.13
2022-11-29T16:38:18.253Z,98825.69
2022-11-29T16:40:44.365Z,98825.69
2022-11-29T16:43:10.469Z,98821.81
2022-11-29T16:45:36.588Z,98829.16
2022-11-29T16:48:02.792Z,98824.84
2022-11-29T16:50:28.935Z,98826.63
2022-11-29T16:52:56.867Z,98824.97
2022-11-29T16:55:23.187Z,98826.22
2022-11-29T16:57:49.281Z,98833.72
2022-11-29T17:00:15.392Z,98834.53
2022-11-29T17:02:41.529Z,98828.44
2022-11-29T17:05:07.649Z,98823.56
2022-11-29T17:07:33.766Z,98832.19
2022-11-29T17:09:59.900Z,98836.19
2022-11-29T17:12:25.994Z,98830.75
2022-11-29T17:14:52.088Z,98836.47
2022-11-29T17:17:18.202Z,98840.06
2022-11-29T17:19:44.306Z,98837.69
2022-11-29T17:22:10.399Z,98841.28
2022-11-29T17:24:36.804Z,98834.44
2022-11-29T17:27:02.899Z,98846.00
2022-11-29T17:29:29.009Z,98840.19
2022-11-29T17:31:55.192Z,98841.44
2022-11-29T17:34:21.328Z,98839.75
2022-11-29T17:36:47.472Z,98839.09
2022-11-29T17:39:13.585Z,98837.25
2022-11-29T17:41:39.678Z,98839.19
2022-11-29T17:44:05.772Z,98833.78
2022-11-29T17:46:31.889Z,98838.66
2022-11-29T17:48:57.988Z,98840.59
2022-11-29T17:54:10.709Z,98844.63
2022-11-29T17:56:36.805Z,98840.06
2022-11-29T17:59:02.896Z,98849.19
2022-11-29T18:01:29.097Z,98856.94
2022-11-29T18:03:55.252Z,98850.31
2022-11-29T18:06:21.348Z,98854.44
2022-11-29T18:08:47.465Z,98858.75
2022-11-29T18:11:13.561Z,98860.28
2022-11-29T18:13:39.662Z,98863.19
2022-11-29T18:16:05.768Z,98855.66
2022-11-29T18:18:31.875Z,98864.16
2022-11-29T18:20:57.967Z,98868.59
2022-11-29T18:23:24.081Z,98871.09
2022-11-29T18:25:50.178Z,98865.53
2022-11-29T18:28:16.293Z,98868.53
2022-11-29T18:30:42.475Z,98863.16
2022-11-29T18:33:08.596Z,98866.31
2022-11-29T18:35:34.696Z,98858.00
2022-11-29T18:38:16.659Z,98860.66
2022-11-29T18:40:42.973Z,98860.53
2022-11-29T18:43:09.081Z,98860.59
2022-11-29T18:45:35.179Z,98873.53
2022-11-29T18:48:01.274Z,98875.91
2022-11-29T18:50:27.378Z,98872.19
2022-11-29T18:52:53.467Z,98868.53
2022-11-29T18:55:19.555Z,98881.81
2022-11-29T18:57:46.447Z,98872.72
2022-11-29T19:00:12.545Z,98873.22
2022-11-29T19:02:38.664Z,98877.81
2022-11-29T19:05:04.796Z,98876.56
2022-11-29T19:07:30.926Z,98880.19
2022-11-29T19:09:57.039Z,98877.41
2022-11-29T19:12:23.159Z,98878.25
2022-11-29T19:14:50.186Z,98874.09
2022-11-29T19:17:16.448Z,98879.31
2022-11-29T19:19:42.620Z,98878.50
2022-11-29T19:22:08.826Z,98879.41
2022-11-29T19:24:34.921Z,98881.34
2022-11-29T19:27:01.088Z,98881.78
2022-11-29T19:29:27.185Z,98893.94
2022-11-29T19:31:53.286Z,98882.31
2022-11-29T19:34:19.680Z,98884.41
2022-11-29T19:36:45.767Z,98886.00
2022-11-29T19:39:11.871Z,98887.94
2022-11-29T19:41:37.996Z,98890.25
2022-11-29T19:44:04.106Z,98891.53
2022-11-29T19:46:30.234Z,98894.38
2022-11-29T19:48:56.384Z,98896.75
2022-11-29T19:51:22.485Z,98888.47
2022-11-29T19:53:48.594Z,98894.97
2022-11-29T19:56:14.696Z,98897.78
2022-11-29T19:58:40.794Z,98891.44
2022-11-29T20:01:06.892Z,98893.66
2022-11-29T20:03:33.009Z,98897.38
2022-11-29T20:05:59.106Z,98899.69
2022-11-29T20:08:25.212Z,98909.91
2022-11-29T20:10:51.318Z,98904.25
2022-11-29T20:13:17.405Z,98911.50
2022-11-29T20:15:43.539Z,98916.16
2022-11-29T20:18:09.691Z,98916.00
2022-11-29T20:20:35.798Z,98920.59
2022-11-29T20:23:01.899Z,98917.28
2022-11-29T20:25:28.027Z,98913.25
2022-11-29T20:27:54.124Z,98917.81
2022-11-29T20:30:20.229Z,98910.22
2022-11-29T20:32:48.465Z,98916.38
2022-11-29T20:35:14.569Z,98924.28
2022-11-29T20:37:40.665Z,98918.78
2022-11-29T20:40:06.780Z,98915.88
2022-11-29T20:42:32.879Z,98913.31
2022-11-29T20:44:58.973Z,98914.19
2022-11-29T20:47:25.191Z,98920.25
2022-11-29T20:49:51.306Z,98920.25
2022-11-29T20:52:17.396Z,98917.63
2022-11-29T20:54:43.506Z,98915.00
2022-11-29T20:57:09.604Z,98919.56
2022-11-29T20:59:35.696Z,98919.59
2022-11-29T21:02:01.876Z,98912.59
2022-11-29T21:04:28.034Z,98913.13
2022-11-29T21:06:54.134Z,98917.47
2022-11-29T21:09:20.237Z,98918.66
2022-11-29T21:11:46.350Z,98920.59
2022-11-29T21:14:12.446Z,98924.28
2022-11-29T21:16:38.568Z,98918.50
2022-11-29T21:19:04.659Z,98925.59
2022-11-29T21:21:30.750Z,98920.06
2022-11-29T21:23:56.873Z,98920.09
2022-11-29T21:26:22.979Z,98930.81
2022-11-29T21:28:49.086Z,98931.44
2022-11-29T21:31:15.238Z,98927.38
2022-11-29T21:33:41.399Z,98927.16
2022-11-29T21:36:07.492Z,98922.84
2022-11-29T21:38:34.102Z,98934.81
2022-11-29T21:41:00.197Z,98932.25
2022-11-29T21:43:57.931Z,98927.75
2022-11-29T21:46:12.490Z,98929.50
2022-11-29T21:48:38.619Z,98930.09
2022-11-29T21:51:04.710Z,98932.47
2022-11-29T21:53:30.847Z,98946.44
2022-11-29T21:55:56.950Z,98945.78
2022-11-29T21:58:23.035Z,98940.44
2022-11-29T22:00:49.144Z,98937.59
2022-11-29T22:03:15.244Z,98942.25
2022-11-29T22:05:41.327Z,98943.09
2022-11-29T22:08:07.454Z,98943.09
2022-11-29T22:10:33.548Z,98944.78
2022-11-29T22:12:59.648Z,98946.16
2022-11-29T22:15:25.746Z,98946.81
2022-11-29T22:17:51.834Z,98945.00
2022-11-29T22:20:17.924Z,98938.44
2022-11-29T22:22:44.082Z,98936.50
2022-11-29T22:25:10.177Z,98937.91
2022-11-29T22:27:36.274Z,98936.03
2022-11-29T22:30:02.415Z,98939.44
2022-11-29T22:32:28.511Z,98935.91
2022-11-29T22:34:54.622Z,98935.34
2022-11-29T22:37:20.754Z,98932.34
2022-11-29T22:39:46.859Z,98940.09
2022-11-29T22:42:12.955Z,98946.50
2022-11-29T22:44:39.103Z,98947.25
2022-11-29T22:47:05.213Z,98944.16
2022-11-29T22:49:31.310Z,98942.72
2022-11-29T22:51:57.424Z,98948.69
2022-11-29T22:54:23.554Z,98949.41
2022-11-29T22:56:49.652Z,98946.75
2022-11-29T22:59:15.769Z,98951.31
2022-11-29T23:01:42.008Z,98952.75
2022-11-29T23:04:08.200Z,98951.00
2022-11-29T23:06:34.855Z,98949.81
2022-11-29T23:09:01.044Z,98946.75
2022-11-29T23:11:27.142Z,98950.09
2022-11-29T23:13:53.257Z,98951.31
2022-11-29T23:16:19.371Z,98955.22
2022-11-29T23:18:45.491Z,98957.75
2022-11-29T23:21:11.600Z,98960.47
2022-11-29T23:23:37.697Z,98965.00
2022-11-29T23:26:03.782Z,98962.81
2022-11-29T23:28:29.903Z,98965.38
2022-11-29T23:30:56.004Z,98969.16
2022-11-29T23:33:22.092Z,98969.31
2022-11-29T23:35:48.223Z,98973.97
2022-11-29T23:38:14.303Z,98968.44
2022-11-29T23:40:40.424Z,98966.75
2022-11-29T23:43:06.541Z,98965.78
2022-11-29T23:45:32.704Z,98960.19
2022-11-29T23:47:58.840Z,98965.25
2022-11-29T23:50:24.936Z,98966.28
2022-11-29T23:52:51.028Z,98966.91
2022-11-29T23:55:17.273Z,98962.63
2022-11-29T23:57:43.380Z,98964.47
